Time;durP1;ratioP1;P1;durP2;ratioP2;P2;SDS_P1;SDS_P2;PMS_P1;PMS_P2;Temp;Humidity;BMP_temperature;BMP_pressure;BME280_temperature;BME280_humidity;BME280_pressure;Samples;Min_cycle;Max_cycle;Signal;HPM_P1;HPM_P2
2022/01/15 00:25:59;;;;;;;5.83;4.57;;;;;;;8.25;60.54;94910.00;5128800;27;20551;-72
2022/01/15 00:28:26;;;;;;;6.17;4.83;;;;;;;8.23;60.57;94915.19;5128782;28;20177;-73
2022/01/15 00:30:53;;;;;;;4.77;4.27;;;;;;;8.19;60.73;94913.00;5127941;28;20191;-76
2022/01/15 00:33:19;;;;;;;6.17;4.70;;;;;;;7.99;60.92;94887.31;5128496;28;20188;-74
2022/01/15 00:35:46;;;;;;;5.93;4.73;;;;;;;8.13;61.06;94924.47;5128258;28;20191;-74
2022/01/15 00:38:13;;;;;;;4.77;4.10;;;;;;;8.12;60.84;94930.50;5128374;27;20188;-76
2022/01/15 00:40:40;;;;;;;5.03;4.23;;;;;;;8.09;60.95;94932.47;5126721;28;20192;-71
2022/01/15 00:43:08;;;;;;;6.03;4.77;;;;;;;8.06;61.09;94933.50;5128061;28;20203;-71
2022/01/15 00:45:35;;;;;;;6.17;4.73;;;;;;;8.04;60.97;94927.72;5128147;28;20189;-73
2022/01/15 00:48:02;;;;;;;6.50;5.10;;;;;;;8.08;61.16;94941.84;5128322;28;20189;-74
2022/01/15 00:50:29;;;;;;;5.80;4.50;;;;;;;8.07;61.15;94942.75;5128439;28;20196;-74
2022/01/15 00:52:56;;;;;;;6.23;4.73;;;;;;;8.07;61.24;94936.84;5128307;27;20188;-78
2022/01/15 00:55:23;;;;;;;4.83;4.30;;;;;;;7.80;61.32;94894.72;5128214;27;20226;-75
2022/01/15 00:57:50;;;;;;;6.33;4.37;;;;;;;8.04;61.26;94928.53;5128092;28;20200;-72
2022/01/15 01:00:22;;;;;;;5.00;4.10;;;;;;;8.05;61.32;94919.16;5128074;27;20189;-74
2022/01/15 01:02:49;;;;;;;4.30;3.80;;;;;;;8.01;61.51;94920.31;5128190;28;20640;-74
2022/01/15 01:05:17;;;;;;;5.97;3.80;;;;;;;8.01;61.59;94920.31;5127551;28;20192;-75
2022/01/15 01:07:45;;;;;;;4.63;4.07;;;;;;;8.01;61.62;94908.38;5127355;27;20197;-72
2022/01/15 01:10:32;;;;;;;4.40;3.83;;;;;;;7.98;61.71;94913.69;5127600;28;20189;-74
2022/01/15 01:13:13;;;;;;;4.27;3.80;;;;;;;7.92;61.73;94906.53;5127609;27;20193;-75
2022/01/15 01:21:40;;;;;;;4.77;4.03;;;;;;;7.96;61.97;94919.84;5127646;28;20187;-74
2022/01/15 01:24:04;;;;;;;4.83;3.70;;;;;;;7.92;61.97;94911.63;5127051;27;20785;-75
2022/01/15 01:26:38;;;;;;;4.03;3.63;;;;;;;7.94;62.07;94919.13;5115881;27;20192;-74
2022/01/15 01:29:14;;;;;;;5.60;3.97;;;;;;;7.91;62.12;94904.91;5114005;28;20237;-75
2022/01/15 01:31:54;;;;;;;3.83;3.53;;;;;;;7.91;62.31;94897.28;5111985;28;20192;-76
2022/01/15 01:34:24;;;;;;;5.43;3.90;;;;;;;7.71;62.32;94875.88;5114008;28;20216;-76
2022/01/15 01:36:58;;;;;;;4.23;3.67;;;;;;;7.88;62.38;94889.06;5113625;28;20189;-76
2022/01/15 01:39:35;;;;;;;4.90;3.33;;;;;;;7.88;62.42;94899.25;5113690;28;20557;-73
2022/01/15 01:42:10;;;;;;;4.80;3.87;;;;;;;7.89;62.39;94908.50;5113787;28;20189;-75
2022/01/15 01:44:40;;;;;;;4.33;3.90;;;;;;;7.88;62.55;94911.97;5113598;28;20211;-77
2022/01/15 01:47:20;;;;;;;4.30;3.60;;;;;;;7.85;62.35;94905.38;5113526;28;20649;-75
2022/01/15 01:49:47;;;;;;;4.73;3.97;;;;;;;7.84;62.38;94903.75;5113509;28;20244;-73
2022/01/15 01:52:14;;;;;;;5.83;3.90;;;;;;;7.86;62.14;94914.66;5113741;28;20200;-76
2022/01/15 01:54:41;;;;;;;3.97;3.57;;;;;;;7.86;62.53;94903.63;5113199;28;20266;-77
2022/01/15 01:57:07;;;;;;;5.10;3.90;;;;;;;7.79;62.52;94893.91;5113306;28;20561;-77
2022/01/15 01:59:34;;;;;;;5.70;4.57;;;;;;;7.85;62.44;94914.75;5113461;28;20197;-74
2022/01/15 02:02:01;;;;;;;4.57;3.70;;;;;;;7.84;62.38;94903.75;5112786;28;20192;-75
2022/01/15 02:04:29;;;;;;;4.40;3.77;;;;;;;7.79;62.14;94891.38;5112722;28;20559;-75
2022/01/15 02:06:56;;;;;;;4.40;3.87;;;;;;;7.83;62.33;94901.34;5113204;28;20196;-76
2022/01/15 02:09:23;;;;;;;4.73;4.23;;;;;;;7.76;62.22;94880.59;5113119;28;20185;-77
2022/01/15 02:11:50;;;;;;;5.13;4.37;;;;;;;7.82;62.39;94892.09;5113164;28;20261;-74
2022/01/15 02:14:36;;;;;;;5.57;3.73;;;;;;;7.79;62.25;94896.47;5113522;28;20225;-75
2022/01/15 02:17:03;;;;;;;5.77;4.93;;;;;;;7.78;62.21;94897.41;5112935;28;20279;-77
2022/01/15 02:19:33;;;;;;;6.23;5.13;;;;;;;7.76;62.27;94889.03;5112538;28;20201;-75
2022/01/15 02:24:43;;;;;;;7.40;5.27;;;;;;;7.71;62.12;94891.13;5112285;28;20223;-75
2022/01/15 02:27:10;;;;;;;5.43;4.77;;;;;;;7.72;62.05;94902.94;5112474;28;20204;-74
2022/01/15 02:29:37;;;;;;;5.87;4.60;;;;;;;7.70;62.06;94901.44;5112364;28;20192;-74
2022/01/15 02:32:05;;;;;;;7.93;5.37;;;;;;;7.72;62.02;94912.31;5112511;28;20200;-75
2022/01/15 02:34:33;;;;;;;6.20;4.73;;;;;;;7.70;62.23;94911.63;5111192;28;20232;-72
2022/01/15 02:37:00;;;;;;;6.43;4.93;;;;;;;7.67;62.10;94907.56;5111449;28;20692;-73
2022/01/15 02:39:27;;;;;;;5.93;4.70;;;;;;;7.66;62.20;94907.69;5112475;28;20189;-76
2022/01/15 02:41:53;;;;;;;5.63;4.40;;;;;;;7.66;62.24;94905.94;5112335;28;20197;-78
2022/01/15 02:44:20;;;;;;;6.17;4.37;;;;;;;7.65;62.16;94927.25;5112731;28;20185;-73
2022/01/15 02:49:33;;;;;;;5.00;4.40;;;;;;;7.65;62.15;94928.97;5112328;28;20242;-74
2022/01/15 02:52:00;;;;;;;5.50;4.40;;;;;;;7.62;61.97;94926.66;5112397;28;20185;-75
2022/01/15 02:54:27;;;;;;;5.00;4.37;;;;;;;7.63;62.19;94923.19;5112297;28;20232;-73
2022/01/15 02:56:54;;;;;;;5.27;4.43;;;;;;;7.66;62.03;94920.41;5111901;28;20280;-74
2022/01/15 02:59:24;;;;;;;7.37;4.50;;;;;;;7.59;61.87;94916.69;5112213;28;20272;-76
2022/01/15 03:01:51;;;;;;;5.67;4.23;;;;;;;7.64;61.83;94925.63;5112322;28;20193;-74
2022/01/15 03:04:19;;;;;;;7.77;5.47;;;;;;;7.64;61.76;94927.34;5114512;28;20216;-76
2022/01/15 03:06:47;;;;;;;6.73;5.10;;;;;;;7.64;61.70;94935.81;5120703;28;20185;-76
2022/01/15 03:09:14;;;;;;;6.50;4.60;;;;;;;7.63;61.67;94934.16;5118024;28;20197;-74
2022/01/15 03:11:42;;;;;;;6.37;4.57;;;;;;;7.64;61.57;94933.25;5112076;28;20200;-75
2022/01/15 03:14:09;;;;;;;7.83;5.47;;;;;;;7.65;61.46;94939.16;5111900;28;20189;-75
2022/01/15 03:16:36;;;;;;;5.87;5.00;;;;;;;7.51;61.20;94918.09;5112180;28;20239;-72
2022/01/15 03:19:02;;;;;;;7.13;5.73;;;;;;;7.64;61.08;94930.72;5113020;28;20189;-76
2022/01/15 03:21:29;;;;;;;7.73;5.10;;;;;;;7.64;60.85;94923.09;5112305;28;20188;-74
2022/01/15 03:23:57;;;;;;;6.73;5.53;;;;;;;7.59;60.62;94914.97;5111993;28;20229;-75
2022/01/15 03:26:24;;;;;;;6.53;5.20;;;;;;;7.63;60.38;94915.53;5112233;28;20269;-74
2022/01/15 03:28:51;;;;;;;9.40;5.87;;;;;;;7.49;60.26;94901.31;5111357;28;20186;-71
2022/01/15 03:31:17;;;;;;;6.50;5.10;;;;;;;7.58;60.19;94927.81;5111305;28;20185;-76
2022/01/15 03:33:44;;;;;;;8.60;5.97;;;;;;;7.57;59.92;94921.09;5111367;28;20192;-73
2022/01/15 03:36:11;;;;;;;7.57;5.50;;;;;;;7.49;59.97;94919.13;5111228;28;20601;-72
2022/01/15 03:38:38;;;;;;;6.90;5.10;;;;;;;7.53;59.86;94926.41;5110903;28;20619;-75
2022/01/15 03:41:06;;;;;;;6.07;5.20;;;;;;;7.51;59.85;94932.53;5111327;28;20569;-72
2022/01/15 03:43:33;;;;;;;8.33;6.07;;;;;;;7.51;59.91;94950.34;5110929;28;20185;-75
2022/01/15 03:46:00;;;;;;;7.73;5.70;;;;;;;7.49;59.84;94947.09;5111351;28;20567;-74
2022/01/15 03:48:27;;;;;;;9.80;6.47;;;;;;;7.50;59.92;94941.09;5111924;28;20188;-76
2022/01/15 03:50:55;;;;;;;7.17;5.73;;;;;;;7.49;59.98;94947.09;5112610;28;20189;-76
2022/01/15 03:53:22;;;;;;;8.40;6.17;;;;;;;7.44;60.10;94946.63;5115884;28;20688;-77
2022/01/15 03:55:50;;;;;;;9.43;5.83;;;;;;;7.35;60.24;94932.06;5112755;28;20231;-75
2022/01/15 03:58:18;;;;;;;7.97;5.50;;;;;;;7.27;60.12;94937.69;5111930;28;20203;-76
2022/01/15 04:00:45;;;;;;;8.87;5.87;;;;;;;7.43;60.29;94966.19;5112268;28;20200;-76
2022/01/15 04:03:12;;;;;;;8.17;5.90;;;;;;;7.43;60.36;94965.38;5110991;28;20196;-75
2022/01/15 04:05:39;;;;;;;7.70;5.40;;;;;;;7.42;60.43;94974.72;5111299;28;20191;-78
2022/01/15 04:08:07;;;;;;;9.30;5.67;;;;;;;7.45;60.54;94971.97;5110985;28;20193;-74
2022/01/15 04:10:34;;;;;;;6.87;5.30;;;;;;;7.44;60.45;94975.44;5110883;28;20181;-76
2022/01/15 04:13:01;;;;;;;8.10;5.43;;;;;;;7.45;60.23;94984.69;5111446;28;20207;-76
2022/01/15 04:15:29;;;;;;;10.00;5.90;;;;;;;7.45;60.63;94979.59;5111089;28;20221;-75
2022/01/15 04:17:56;;;;;;;6.73;5.60;;;;;;;7.46;60.61;94993.94;5111299;28;20193;-73
2022/01/15 04:20:23;;;;;;;7.23;5.40;;;;;;;7.47;60.42;94989.66;5110646;28;20206;-77
2022/01/15 04:22:51;;;;;;;6.97;5.83;;;;;;;7.46;60.58;95000.75;5110758;28;20204;-75
2022/01/15 04:25:18;;;;;;;9.33;6.37;;;;;;;7.44;60.64;94992.44;5110851;28;20216;-75
2022/01/15 04:27:45;;;;;;;7.90;6.20;;;;;;;7.46;60.66;95001.56;5110728;28;20273;-74
2022/01/15 04:30:14;;;;;;;7.80;5.73;;;;;;;7.45;60.53;95010.13;5110676;28;20200;-75
2022/01/15 04:32:43;;;;;;;9.23;5.70;;;;;;;7.45;60.45;95011.88;5112947;28;20715;-77
2022/01/15 04:35:10;;;;;;;8.70;6.00;;;;;;;7.44;60.52;95011.06;5113360;28;20221;-77
2022/01/15 04:37:40;;;;;;;9.00;6.63;;;;;;;7.44;60.54;95011.06;5111853;28;20197;-76
2022/01/15 04:40:09;;;;;;;8.23;6.00;;;;;;;7.45;60.47;95004.22;5111219;28;20677;-76
2022/01/15 04:42:36;;;;;;;7.17;6.20;;;;;;;7.41;60.50;94992.66;5111038;28;20628;-77
2022/01/15 04:45:06;;;;;;;9.07;6.40;;;;;;;7.31;60.80;94991.69;5111779;28;20193;-77
2022/01/15 04:47:32;;;;;;;8.97;6.33;;;;;;;7.41;60.49;94998.53;5113381;28;20197;-76
2022/01/15 04:50:01;;;;;;;10.27;6.53;;;;;;;7.41;60.81;95006.19;5115169;28;20196;-77
2022/01/15 04:52:27;;;;;;;7.93;6.20;;;;;;;7.41;60.93;95015.53;5111526;28;20258;-77
2022/01/15 04:54:54;;;;;;;7.70;6.23;;;;;;;7.45;60.67;95019.50;5110634;28;20243;-72
2022/01/15 04:57:21;;;;;;;10.30;7.00;;;;;;;7.46;60.58;95016.84;5110308;28;20196;-77
2022/01/15 04:59:48;;;;;;;8.33;6.63;;;;;;;7.47;60.86;95020.19;5111569;28;20682;-79
2022/01/15 05:02:15;;;;;;;10.27;6.73;;;;;;;7.46;60.69;95014.28;5116777;28;20185;-78
2022/01/15 05:04:41;;;;;;;8.73;6.33;;;;;;;7.50;60.85;95015.69;5118533;28;20201;-73
2022/01/15 05:07:10;;;;;;;8.27;6.03;;;;;;;7.53;60.78;95012.13;5118857;28;20185;-72
2022/01/15 05:09:36;;;;;;;7.67;6.30;;;;;;;7.50;60.86;95013.13;5119417;28;20193;-79
2022/01/15 05:12:09;;;;;;;10.73;6.90;;;;;;;7.48;61.09;95024.38;5120720;28;20192;-75
2022/01/15 05:14:36;;;;;;;12.47;8.50;;;;;;;7.52;61.11;95030.88;5120902;28;20216;-77
2022/01/15 05:17:03;;;;;;;11.90;9.10;;;;;;;7.48;61.34;95032.81;5118880;28;20192;-78
2022/01/15 05:19:30;;;;;;;11.07;8.27;;;;;;;7.48;61.38;95040.44;5117256;28;20380;-75
2022/01/15 05:21:58;;;;;;;11.33;8.50;;;;;;;7.49;61.34;95038.72;5114593;28;20185;-74
2022/01/15 05:24:29;;;;;;;8.97;7.93;;;;;;;7.51;61.45;95036.84;5120412;28;20224;-76
2022/01/15 05:26:56;;;;;;;14.43;10.83;;;;;;;7.45;61.80;95030.47;5120774;28;20189;-73
2022/01/15 05:29:23;;;;;;;12.63;8.90;;;;;;;7.53;61.37;95046.00;5121488;28;20662;-77
2022/01/15 05:31:50;;;;;;;13.93;10.03;;;;;;;7.52;61.52;95059.66;5120295;28;20192;-74
2022/01/15 05:34:16;;;;;;;16.27;11.07;;;;;;;7.51;61.58;95052.97;5114849;27;20688;-76
2022/01/15 05:36:43;;;;;;;15.33;10.00;;;;;;;7.49;61.65;95051.44;5114484;28;20228;-72
2022/01/15 05:39:10;;;;;;;13.00;9.90;;;;;;;7.52;61.62;95057.13;5113836;28;20189;-72
2022/01/15 05:41:39;;;;;;;13.37;10.03;;;;;;;7.51;61.85;95062.31;5118968;28;20570;-74
2022/01/15 05:44:06;;;;;;;14.20;9.17;;;;;;;7.50;61.67;95063.22;5118701;28;20193;-78
2022/01/15 05:46:34;;;;;;;11.20;8.80;;;;;;;7.49;61.77;95059.88;5116253;28;20193;-75
2022/01/15 05:49:02;;;;;;;13.40;9.53;;;;;;;7.51;61.76;95067.38;5113804;28;20573;-74
2022/01/15 05:51:31;;;;;;;14.17;9.53;;;;;;;7.50;61.86;95074.22;5113791;28;20684;-73
2022/01/15 05:53:58;;;;;;;11.87;8.60;;;;;;;7.45;61.83;95062.75;5113361;28;20618;-74
2022/01/15 05:56:25;;;;;;;11.93;8.93;;;;;;;7.51;61.67;95077.56;5113753;28;20252;-73
2022/01/15 05:58:54;;;;;;;11.33;9.00;;;;;;;7.45;61.78;95066.09;5113755;28;20201;-76
2022/01/15 06:01:21;;;;;;;13.00;9.27;;;;;;;7.57;61.66;95082.22;5114117;28;20189;-72
2022/01/15 06:03:48;;;;;;;13.90;9.80;;;;;;;7.59;61.69;95092.28;5112883;28;20189;-74
2022/01/15 06:06:15;;;;;;;11.73;8.83;;;;;;;7.57;61.73;95092.41;5113230;28;20192;-73
2022/01/15 06:08:42;;;;;;;12.57;8.83;;;;;;;7.62;61.70;95097.19;5113659;28;20649;-75
2022/01/15 06:11:10;;;;;;;10.67;8.57;;;;;;;7.65;61.71;95097.78;5112937;28;20627;-76
2022/01/15 06:13:36;;;;;;;9.20;7.73;;;;;;;7.68;61.64;95107.72;5113382;28;20225;-76
2022/01/15 06:16:05;;;;;;;12.10;8.60;;;;;;;7.71;61.64;95094.78;5112116;28;20681;-76
2022/01/15 06:18:32;;;;;;;10.73;8.40;;;;;;;7.67;61.56;95095.91;5112974;28;20689;-75
2022/01/15 06:20:59;;;;;;;10.73;8.40;;;;;;;7.77;61.48;95107.09;5112978;28;20196;-74
2022/01/15 06:23:26;;;;;;;11.47;8.53;;;;;;;7.79;61.49;95112.84;5112684;28;20574;-74
2022/01/15 06:25:52;;;;;;;11.27;8.07;;;;;;;7.70;61.50;95090.63;5112377;28;20231;-76
2022/01/15 06:28:19;;;;;;;12.83;8.53;;;;;;;7.84;61.36;95109.16;5112656;28;20238;-74
2022/01/15 06:30:46;;;;;;;11.00;8.73;;;;;;;7.88;61.51;95113.13;5112503;28;20192;-74
2022/01/15 06:33:14;;;;;;;11.00;8.30;;;;;;;7.95;61.17;95116.84;5112867;28;20200;-75
2022/01/15 06:35:41;;;;;;;11.00;8.17;;;;;;;8.09;60.92;95118.41;5112191;28;20220;-74
2022/01/15 06:38:08;;;;;;;11.97;8.47;;;;;;;8.24;60.69;95123.16;5112471;28;20189;-75
2022/01/15 06:40:36;;;;;;;12.47;8.60;;;;;;;8.18;60.49;95092.25;5112728;28;20193;-75
2022/01/15 06:43:05;;;;;;;11.40;8.00;;;;;;;8.64;60.36;95132.19;5112447;28;20196;-75
2022/01/15 06:45:33;;;;;;;11.27;9.50;;;;;;;8.96;60.16;95117.00;5112571;28;20265;-73
2022/01/15 06:48:00;;;;;;;11.13;7.77;;;;;;;9.35;60.10;95133.53;5112461;28;20192;-76
2022/01/15 06:50:29;;;;;;;10.03;7.83;;;;;;;9.76;60.13;95130.28;5112617;28;20189;-74
2022/01/15 06:52:56;;;;;;;11.30;8.20;;;;;;;10.20;59.88;95130.19;5111948;28;20193;-75
2022/01/15 06:55:23;;;;;;;13.67;8.30;;;;;;;10.62;59.50;95125.91;5112479;28;20947;-75
2022/01/15 06:57:50;;;;;;;13.43;8.73;;;;;;;10.93;59.28;95120.78;5112293;28;20185;-74
2022/01/15 07:00:17;;;;;;;10.90;8.30;;;;;;;11.40;58.72;95124.41;5111980;28;20200;-78
2022/01/15 07:02:44;;;;;;;10.30;7.60;;;;;;;11.76;58.17;95107.59;5112422;28;20197;-72
2022/01/15 07:05:11;;;;;;;11.67;7.93;;;;;;;12.38;57.35;95135.50;5112063;28;20200;-73
2022/01/15 07:07:44;;;;;;;9.13;7.57;;;;;;;12.81;56.57;95132.41;5112314;28;20279;-73
2022/01/15 07:10:11;;;;;;;10.23;8.13;;;;;;;13.23;55.70;95140.53;5112458;28;20189;-75
2022/01/15 07:12:38;;;;;;;12.10;7.77;;;;;;;13.63;54.96;95153.97;5112263;28;20189;-72
2022/01/15 07:15:06;;;;;;;9.17;7.97;;;;;;;14.02;54.22;95150.16;5117672;28;20623;-72
2022/01/15 07:17:32;;;;;;;11.17;7.40;;;;;;;14.28;53.36;95159.69;5118728;28;20224;-73
2022/01/15 07:19:59;;;;;;;10.67;7.67;;;;;;;14.38;53.11;95160.44;5114376;28;20200;-73
2022/01/15 07:22:26;;;;;;;11.43;8.23;;;;;;;14.32;52.28;95163.59;5111368;28;20193;-71
2022/01/15 07:24:54;;;;;;;9.50;7.63;;;;;;;14.20;51.68;95168.16;5110864;27;20213;-72
2022/01/15 07:27:21;;;;;;;13.03;8.70;;;;;;;14.04;51.30;95175.75;5111794;28;20250;-71
2022/01/15 07:29:48;;;;;;;11.73;8.23;;;;;;;13.86;50.94;95178.31;5111046;28;20189;-71
2022/01/15 07:32:14;;;;;;;10.97;8.20;;;;;;;13.58;50.49;95174.16;5111791;28;20215;-73
2022/01/15 07:34:41;;;;;;;10.27;8.63;;;;;;;13.49;50.60;95191.25;5110977;28;20189;-73
2022/01/15 07:37:08;;;;;;;10.23;8.47;;;;;;;13.20;50.36;95176.72;5111577;28;20220;-73
2022/01/15 07:39:35;;;;;;;10.10;7.80;;;;;;;13.15;50.19;95190.94;5111348;28;20661;-73
2022/01/15 07:42:04;;;;;;;12.03;9.17;;;;;;;12.94;50.28;95189.38;5111583;28;20242;-70
2022/01/15 07:44:31;;;;;;;6.70;4.57;;;;;;;13.06;65.03;95195.16;5110977;28;20204;-72
2022/01/15 07:46:57;;;;;;;9.03;6.73;;;;;;;13.50;63.71;95188.50;5111175;28;20189;-73
2022/01/15 07:49:24;;;;;;;10.97;8.60;;;;;;;13.70;60.04;95191.00;5110850;28;20862;-75
2022/01/15 07:51:51;;;;;;;15.07;8.00;;;;;;;13.67;57.81;95194.66;5111420;28;20684;-72
2022/01/15 07:54:18;;;;;;;12.07;8.77;;;;;;;13.55;56.29;95195.78;5111576;28;20188;-71
2022/01/15 07:56:45;;;;;;;11.53;7.93;;;;;;;13.35;55.20;95184.81;5111209;28;20227;-77
2022/01/15 07:59:13;;;;;;;11.90;8.83;;;;;;;13.20;54.09;95201.59;5111091;28;20189;-76
2022/01/15 08:01:40;;;;;;;11.73;8.57;;;;;;;13.07;53.49;95209.63;5111288;28;20193;-76
2022/01/15 08:04:07;;;;;;;11.07;8.43;;;;;;;12.92;53.00;95211.84;5110763;28;20189;-73
2022/01/15 08:06:33;;;;;;;11.80;9.10;;;;;;;12.79;52.43;95213.91;5111111;28;20199;-77
2022/01/15 08:09:00;;;;;;;11.07;9.17;;;;;;;12.66;52.16;95210.81;5111437;28;20196;-77
2022/01/15 08:11:27;;;;;;;10.40;8.83;;;;;;;12.52;52.06;95214.59;5110799;28;20672;-76
2022/01/15 08:13:54;;;;;;;11.27;8.83;;;;;;;12.39;51.71;95232.84;5110760;28;20617;-75
2022/01/15 08:16:22;;;;;;;12.00;9.40;;;;;;;12.24;51.64;95235.00;5110168;28;20229;-76
2022/01/15 08:18:49;;;;;;;13.73;9.53;;;;;;;12.13;51.56;95239.44;5110603;28;20196;-75
2022/01/15 08:21:16;;;;;;;15.73;9.17;;;;;;;11.90;51.26;95229.41;5110403;28;20193;-77
2022/01/15 08:23:43;;;;;;;10.93;9.00;;;;;;;11.91;51.53;95248.16;5110618;28;20249;-76
2022/01/15 08:26:10;;;;;;;14.23;9.53;;;;;;;11.80;51.29;95247.31;5110554;28;20197;-78
2022/01/15 08:28:38;;;;;;;12.47;9.10;;;;;;;11.72;51.30;95247.16;5110562;28;20193;-74
2022/01/15 08:31:04;;;;;;;10.37;8.53;;;;;;;11.66;51.23;95252.81;5110634;28;20281;-76
2022/01/15 08:33:33;;;;;;;11.93;9.60;;;;;;;11.59;51.39;95251.72;5110850;28;20192;-74
2022/01/15 08:36:00;;;;;;;12.97;9.70;;;;;;;11.50;51.35;95252.50;5111669;28;20216;-76
2022/01/15 08:38:27;;;;;;;13.07;9.57;;;;;;;11.44;51.57;95261.50;5114931;28;20219;-76
2022/01/15 08:40:54;;;;;;;11.50;8.77;;;;;;;11.30;51.23;95246.47;5114468;28;20212;-74
2022/01/15 08:43:21;;;;;;;11.73;8.73;;;;;;;11.41;51.38;95266.88;5114460;28;20246;-76
2022/01/15 08:45:48;;;;;;;13.40;8.30;;;;;;;11.40;51.33;95278.06;5114587;28;20193;-77
2022/01/15 08:48:19;;;;;;;11.60;8.80;;;;;;;11.38;51.43;95281.69;5114488;28;20673;-75
2022/01/15 08:50:47;;;;;;;13.07;9.23;;;;;;;11.33;51.25;95286.38;5114839;28;20551;-78
2022/01/15 08:53:17;;;;;;;10.17;8.40;;;;;;;11.35;51.26;95290.41;5114543;28;20193;-76
2022/01/15 08:55:44;;;;;;;9.50;8.17;;;;;;;11.34;51.27;95282.88;5113395;28;20200;-76
2022/01/15 08:58:11;;;;;;;11.50;8.97;;;;;;;11.34;51.13;95272.63;5114615;28;20189;-78
2022/01/15 09:00:38;;;;;;;12.17;8.63;;;;;;;11.42;51.11;95285.63;5114515;28;20217;-77
2022/01/15 09:03:06;;;;;;;11.57;8.37;;;;;;;11.40;50.76;95275.50;5113867;28;20537;-75
2022/01/15 09:05:34;;;;;;;10.03;7.90;;;;;;;11.48;50.94;95280.78;5114150;27;20192;-74
2022/01/15 09:08:03;;;;;;;11.93;8.70;;;;;;;11.56;50.90;95286.06;5114217;28;20189;-74
2022/01/15 09:10:30;;;;;;;11.80;8.10;;;;;;;11.60;50.64;95288.38;5114675;28;20189;-76
2022/01/15 09:12:57;;;;;;;12.07;9.00;;;;;;;11.66;50.59;95295.56;5113930;28;20665;-76
2022/01/15 09:15:24;;;;;;;11.77;8.37;;;;;;;11.69;50.70;95296.09;5113919;28;20193;-74
2022/01/15 09:17:51;;;;;;;10.50;8.20;;;;;;;11.26;50.48;95224.63;5113844;28;20224;-75
2022/01/15 09:20:18;;;;;;;10.67;8.53;;;;;;;11.71;50.49;95295.97;5114149;28;20193;-77
2022/01/15 09:22:45;;;;;;;11.93;8.53;;;;;;;11.62;50.46;95277.06;5114267;28;20220;-80
2022/01/15 09:25:13;;;;;;;11.10;8.10;;;;;;;11.74;50.45;95304.22;5114008;28;20220;-75
2022/01/15 09:30:24;;;;;;;12.20;8.43;;;;;;;11.75;50.52;95303.28;5113824;28;20187;-71
2022/01/15 09:32:53;;;;;;;12.03;8.77;;;;;;;11.63;50.24;95273.56;5113508;28;20208;-74
2022/01/15 09:35:22;;;;;;;10.50;8.20;;;;;;;11.79;50.01;95296.16;5113385;28;20216;-74
2022/01/15 09:37:49;;;;;;;9.50;8.17;;;;;;;11.81;49.97;95292.50;5114286;28;20220;-78
2022/01/15 09:40:18;;;;;;;11.33;8.10;;;;;;;11.85;50.15;95285.41;5113807;28;20193;-74
2022/01/15 09:42:47;;;;;;;10.97;8.07;;;;;;;11.39;50.03;95207.28;5113454;28;20573;-75
2022/01/15 09:45:15;;;;;;;7.67;5.57;;;;;;;11.96;58.64;95275.03;5113455;28;20197;-75
2022/01/15 09:47:43;;;;;;;7.93;5.00;;;;;;;12.45;64.20;95275.91;5113198;28;20204;-73
2022/01/15 09:50:12;;;;;;;6.43;4.93;;;;;;;13.01;61.88;95261.53;5113068;28;20189;-76
2022/01/15 09:52:39;;;;;;;6.30;5.17;;;;;;;13.55;59.75;95255.69;5113526;28;20189;-72
2022/01/15 09:55:09;;;;;;;5.57;4.83;;;;;;;14.20;57.68;95262.53;5112959;28;20192;-71
2022/01/15 09:57:38;;;;;;;5.63;5.10;;;;;;;14.73;55.70;95274.63;5113431;28;20232;-78
2022/01/15 10:00:09;;;;;;;7.13;5.00;;;;;;;15.14;54.41;95267.19;5113079;28;20196;-70
2022/01/15 10:02:38;;;;;;;5.60;5.10;;;;;;;15.48;53.19;95273.19;5113556;28;20197;-76
2022/01/15 10:05:05;;;;;;;5.67;4.40;;;;;;;15.78;51.92;95271.91;5112533;28;20201;-73
2022/01/15 10:07:32;;;;;;;6.90;5.27;;;;;;;16.01;50.91;95261.81;5113253;28;20189;-80
2022/01/15 10:10:13;;;;;;;8.17;5.70;;;;;;;16.32;50.03;95281.91;5112931;28;20185;-79
2022/01/15 10:12:43;;;;;;;7.97;5.63;;;;;;;16.52;49.19;95283.22;5115078;28;20196;-81
2022/01/15 10:15:10;;;;;;;8.33;5.77;;;;;;;16.66;48.49;95274.03;5118467;28;20193;-72
2022/01/15 10:17:39;;;;;;;7.60;5.40;;;;;;;16.86;47.66;95282.31;5113765;28;20232;-72
2022/01/15 10:20:08;;;;;;;7.07;5.97;;;;;;;16.95;47.26;95271.00;5113562;28;20193;-71
2022/01/15 10:22:35;;;;;;;6.60;5.17;;;;;;;17.05;46.88;95263.91;5114230;28;20215;-76
2022/01/15 10:25:07;;;;;;;6.90;5.40;;;;;;;17.20;46.37;95265.81;5113867;28;20728;-75
2022/01/15 10:27:35;;;;;;;7.23;5.60;;;;;;;17.28;46.03;95265.81;5113690;28;20196;-78
2022/01/15 10:30:07;;;;;;;7.07;5.30;;;;;;;17.36;45.81;95263.19;5113126;28;20185;-75
2022/01/15 10:32:36;;;;;;;7.63;6.23;;;;;;;17.38;45.59;95269.00;5109151;28;20208;-75
2022/01/15 10:35:11;;;;;;;7.27;6.57;;;;;;;17.21;45.24;95247.53;5110958;28;20200;-77
2022/01/15 10:37:49;;;;;;;9.03;7.57;;;;;;;16.87;44.69;95255.50;5111592;28;20600;-75
2022/01/15 10:40:17;;;;;;;8.87;7.80;;;;;;;16.41;44.69;95234.50;5109953;28;20188;-76
2022/01/15 10:42:53;;;;;;;9.60;7.23;;;;;;;16.20;44.27;95253.00;5111496;28;20200;-77
2022/01/15 10:45:22;;;;;;;8.67;7.33;;;;;;;15.98;44.12;95236.34;5111688;28;20238;-73
2022/01/15 10:47:52;;;;;;;10.77;7.40;;;;;;;15.84;44.02;95251.59;5108684;28;20196;-74
2022/01/15 10:50:21;;;;;;;8.37;6.87;;;;;;;15.66;43.58;95259.44;5110584;28;20230;-75
2022/01/15 10:52:48;;;;;;;10.63;7.93;;;;;;;15.51;43.51;95257.41;5108773;28;20188;-77
2022/01/15 10:55:17;;;;;;;10.33;7.90;;;;;;;15.39;43.61;95250.09;5110772;28;20189;-73
2022/01/15 10:57:46;;;;;;;8.20;6.70;;;;;;;15.15;43.41;95235.31;5110693;28;20223;-72
2022/01/15 11:00:17;;;;;;;10.70;7.77;;;;;;;15.02;43.62;95257.13;5110354;28;20185;-75
2022/01/15 11:02:47;;;;;;;10.37;7.70;;;;;;;14.60;43.51;95225.31;5111390;28;20188;-74
2022/01/15 11:05:28;;;;;;;10.83;7.70;;;;;;;14.55;43.73;95238.63;5111210;28;20189;-76
2022/01/15 11:08:03;;;;;;;9.37;7.50;;;;;;;14.64;43.58;95263.47;5109689;28;20638;-74
2022/01/15 11:10:36;;;;;;;11.53;7.43;;;;;;;14.65;43.57;95262.50;5108346;28;20556;-77
2022/01/15 11:13:06;;;;;;;7.77;6.70;;;;;;;14.68;43.49;95257.06;5110574;28;20189;-75
2022/01/15 11:15:34;;;;;;;8.47;7.43;;;;;;;14.72;43.25;95258.38;5110353;28;20653;-74
2022/01/15 11:18:03;;;;;;;9.50;7.30;;;;;;;14.71;43.21;95253.38;5110636;28;20201;-75
2022/01/15 11:20:33;;;;;;;7.90;6.90;;;;;;;14.73;43.39;95260.00;5110731;28;20662;-74
2022/01/15 11:23:01;;;;;;;9.30;7.60;;;;;;;14.73;43.24;95252.28;5117166;28;20541;-77
2022/01/15 11:25:29;;;;;;;9.73;6.30;;;;;;;14.72;43.13;95249.81;5114777;28;20221;-74
2022/01/15 11:27:57;;;;;;;9.83;6.90;;;;;;;14.75;43.11;95244.38;5108925;28;20177;-73
2022/01/15 11:30:25;;;;;;;7.37;6.60;;;;;;;14.77;43.21;95243.28;5111042;28;20185;-77
2022/01/15 11:32:53;;;;;;;9.40;6.73;;;;;;;14.73;43.01;95236.03;5110784;28;20193;-79
2022/01/15 11:35:21;;;;;;;10.13;7.33;;;;;;;14.70;43.22;95221.66;5110571;28;20189;-75
2022/01/15 11:37:52;;;;;;;8.80;6.97;;;;;;;14.79;42.71;95233.63;5111250;28;20201;-77
2022/01/15 11:40:40;;;;;;;8.87;6.77;;;;;;;14.77;42.83;95235.56;5090443;28;20212;-75
2022/01/15 11:43:39;;;;;;;9.80;7.03;;;;;;;14.74;42.82;95235.06;5090902;28;20193;-77
2022/01/15 11:46:23;;;;;;;9.07;7.00;;;;;;;14.69;42.59;95239.84;5090663;28;20192;-73
2022/01/15 11:48:50;;;;;;;10.83;8.33;;;;;;;14.65;42.66;95239.34;5090485;28;20228;-76
2022/01/15 11:51:33;;;;;;;9.53;8.03;;;;;;;14.60;42.70;95231.25;5109249;28;20197;-74
2022/01/15 11:54:10;;;;;;;7.73;6.60;;;;;;;14.51;42.96;95234.72;5106357;28;20197;-73
2022/01/15 11:56:39;;;;;;;9.20;6.60;;;;;;;14.37;43.09;95240.34;5107087;28;20185;-73
2022/01/15 11:59:39;;;;;;;9.20;6.93;;;;;;;14.24;43.02;95238.94;5109373;28;20661;-75
2022/01/15 12:02:26;;;;;;;9.93;7.63;;;;;;;14.15;43.00;95234.66;5090250;28;20197;-74
2022/01/15 12:04:53;;;;;;;8.43;6.90;;;;;;;13.98;43.08;95209.75;5091146;28;20670;-79
2022/01/15 12:07:23;;;;;;;9.13;7.40;;;;;;;14.05;43.17;95232.16;5090154;28;20674;-83
2022/01/15 12:09:50;;;;;;;9.73;7.90;;;;;;;14.00;43.22;95234.38;5090404;28;20903;-77
2022/01/15 12:12:43;;;;;;;9.33;6.83;;;;;;;13.95;42.94;95236.56;5090045;28;20185;-74
2022/01/15 12:15:11;;;;;;;8.93;6.80;;;;;;;13.89;43.17;95234.56;5090578;28;20190;-72
2022/01/15 12:17:39;;;;;;;9.37;7.00;;;;;;;13.82;42.87;95233.53;5089900;28;20221;-73
2022/01/15 12:20:28;;;;;;;8.87;7.10;;;;;;;13.65;43.10;95214.56;5090379;28;20205;-78